Time;durP1;ratioP1;P1;durP2;ratioP2;P2;SDS_P1;SDS_P2;PMS_P1;PMS_P2;Temp;Humidity;BMP_temperature;BMP_pressure;BME280_temperature;BME280_humidity;BME280_pressure;Samples;Min_cycle;Max_cycle;Signal;HPM_P1;HPM_P2
2023/09/18 00:01:28;;;;;;;10.30;6.50;;;22.90;99.90;;;;;;4951436;29;20500;-68
2023/09/18 00:03:54;;;;;;;8.05;6.18;;;22.90;99.90;;;;;;4954740;29;20039;-68
2023/09/18 00:06:19;;;;;;;7.53;6.00;;;22.90;99.90;;;;;;4955260;29;20034;-68
2023/09/18 00:08:45;;;;;;;8.20;6.32;;;22.90;99.90;;;;;;4955093;29;20039;-69
2023/09/18 00:11:11;;;;;;;6.38;5.78;;;22.90;99.90;;;;;;4952818;29;20094;-68
2023/09/18 00:13:37;;;;;;;6.28;5.65;;;22.90;99.90;;;;;;4954648;29;20027;-69
2023/09/18 00:16:03;;;;;;;6.80;6.10;;;22.90;99.90;;;;;;4955160;29;20049;-69
2023/09/18 00:18:29;;;;;;;6.78;6.13;;;22.90;99.90;;;;;;4954567;29;20030;-72
2023/09/18 00:20:55;;;;;;;7.28;5.57;;;22.90;99.90;;;;;;4954574;28;20031;-69
2023/09/18 00:23:20;;;;;;;7.25;6.38;;;22.90;99.90;;;;;;4954407;29;20024;-69
2023/09/18 00:25:46;;;;;;;6.72;6.05;;;22.90;99.90;;;;;;4954959;29;20058;-69
2023/09/18 00:28:11;;;;;;;6.28;5.68;;;22.90;99.90;;;;;;4955470;29;20502;-69
2023/09/18 00:30:42;;;;;;;6.75;5.78;;;22.90;99.90;;;;;;4955299;29;20115;-70
2023/09/18 00:33:07;;;;;;;7.05;6.30;;;22.90;99.90;;;;;;4955048;29;20028;-69
2023/09/18 00:35:33;;;;;;;7.10;6.47;;;22.80;99.90;;;;;;4955266;28;20098;-69
2023/09/18 00:38:02;;;;;;;7.32;6.57;;;22.80;99.90;;;;;;4955373;29;20026;-70
2023/09/18 00:40:29;;;;;;;8.05;6.32;;;22.90;99.90;;;;;;4955405;29;20027;-69
2023/09/18 00:42:54;;;;;;;7.88;5.47;;;22.80;99.90;;;;;;4955271;29;20110;-70
2023/09/18 00:45:20;;;;;;;7.60;5.80;;;22.80;99.90;;;;;;4938036;29;20034;-69
2023/09/18 00:47:46;;;;;;;7.22;6.47;;;22.80;99.90;;;;;;4954949;29;20031;-71
2023/09/18 00:50:14;;;;;;;9.40;6.47;;;22.80;99.90;;;;;;4955095;29;20039;-69
2023/09/18 00:52:41;;;;;;;10.55;5.65;;;22.80;99.90;;;;;;4955453;29;20054;-69
2023/09/18 00:55:08;;;;;;;8.32;6.72;;;22.80;99.90;;;;;;4955181;29;20049;-70
2023/09/18 00:57:34;;;;;;;8.13;6.38;;;22.80;99.90;;;;;;4955288;29;20037;-70
2023/09/18 00:59:59;;;;;;;10.05;6.90;;;22.80;99.90;;;;;;4954765;29;20542;-69
2023/09/18 01:02:26;;;;;;;8.77;6.28;;;22.80;99.90;;;;;;4954902;29;20035;-69
2023/09/18 01:04:52;;;;;;;7.38;6.25;;;22.80;99.90;;;;;;4955168;29;20392;-70
2023/09/18 01:07:18;;;;;;;13.57;6.45;;;22.90;99.90;;;;;;4955221;29;20398;-70
2023/09/18 01:09:43;;;;;;;8.63;5.93;;;22.80;99.90;;;;;;4954900;29;20035;-69
2023/09/18 01:12:45;;;;;;;9.93;7.13;;;22.80;99.90;;;;;;4954962;29;20019;-69
2023/09/18 01:15:16;;;;;;;8.32;6.55;;;22.90;99.90;;;;;;4955202;29;20040;-69
2023/09/18 01:17:43;;;;;;;7.50;6.75;;;22.80;99.90;;;;;;4954589;29;20034;-70
2023/09/18 01:20:12;;;;;;;8.20;7.15;;;22.90;99.90;;;;;;4954803;28;20032;-70
2023/09/18 01:22:38;;;;;;;8.73;7.43;;;22.80;99.90;;;;;;4954779;29;20051;-70
2023/09/18 01:25:05;;;;;;;8.02;6.88;;;22.80;99.90;;;;;;4954849;29;20381;-72
2023/09/18 01:27:31;;;;;;;10.32;7.28;;;22.80;99.90;;;;;;4954832;29;20023;-71
2023/09/18 01:29:56;;;;;;;10.40;7.35;;;22.80;99.90;;;;;;4937532;29;20046;-69
2023/09/18 01:32:27;;;;;;;9.48;6.85;;;22.80;99.90;;;;;;4937160;29;20031;-71
2023/09/18 01:34:55;;;;;;;8.68;7.55;;;22.80;99.90;;;;;;4954582;28;20027;-72
2023/09/18 01:37:23;;;;;;;9.48;7.82;;;22.70;99.90;;;;;;4954742;29;20026;-69
2023/09/18 01:39:51;;;;;;;12.63;8.20;;;22.70;99.90;;;;;;4954610;29;20034;-69
2023/09/18 01:42:16;;;;;;;7.82;7.05;;;22.70;99.90;;;;;;4954429;29;20031;-70
2023/09/18 01:44:43;;;;;;;8.15;7.32;;;22.70;99.90;;;;;;4954732;29;20074;-69
2023/09/18 01:47:13;;;;;;;7.35;6.68;;;22.70;99.90;;;;;;4954274;29;20098;-69
2023/09/18 01:49:39;;;;;;;7.03;6.25;;;22.70;99.90;;;;;;4954706;29;20032;-70
2023/09/18 01:52:07;;;;;;;7.78;6.93;;;22.70;99.90;;;;;;4954440;29;20031;-71
2023/09/18 01:54:34;;;;;;;8.93;6.70;;;22.70;99.90;;;;;;4954535;29;20055;-69
2023/09/18 01:56:59;;;;;;;8.02;6.90;;;22.70;99.90;;;;;;4954321;28;20030;-80
2023/09/18 01:59:25;;;;;;;8.00;6.47;;;22.60;99.90;;;;;;4954453;29;20027;-74
2023/09/18 02:01:53;;;;;;;9.85;7.05;;;22.60;99.90;;;;;;4954077;29;20031;-79
2023/09/18 02:04:19;;;;;;;8.95;6.45;;;22.60;99.90;;;;;;4954542;29;20110;-73
2023/09/18 02:06:46;;;;;;;9.73;7.20;;;22.60;99.90;;;;;;4954440;29;20465;-71
2023/09/18 02:09:11;;;;;;;7.75;6.75;;;22.60;99.90;;;;;;4954387;29;20054;-78
2023/09/18 02:11:38;;;;;;;11.05;7.15;;;22.60;99.90;;;;;;4955431;28;20473;-76
2023/09/18 02:14:05;;;;;;;8.80;6.40;;;22.60;99.90;;;;;;4957700;29;20512;-70
2023/09/18 02:16:34;;;;;;;7.28;6.57;;;22.60;99.90;;;;;;4940675;29;20158;-74
2023/09/18 02:19:00;;;;;;;7.47;6.20;;;22.60;99.90;;;;;;4957502;29;20031;-74
2023/09/18 02:21:26;;;;;;;7.53;6.43;;;22.60;99.90;;;;;;4974913;28;20035;-79
2023/09/18 02:23:52;;;;;;;7.32;6.63;;;22.60;99.90;;;;;;4976828;28;20034;-71
2023/09/18 02:26:19;;;;;;;7.50;6.70;;;22.60;99.90;;;;;;4977165;28;20015;-80
2023/09/18 02:28:45;;;;;;;9.05;6.78;;;22.60;99.90;;;;;;4975205;28;20027;-74
2023/09/18 02:31:11;;;;;;;7.13;6.30;;;22.50;99.90;;;;;;4976838;28;20058;-75
2023/09/18 02:33:40;;;;;;;9.90;6.40;;;22.60;99.90;;;;;;4976777;28;20035;-73
2023/09/18 02:36:06;;;;;;;8.93;6.15;;;22.50;99.90;;;;;;4976672;28;20023;-78
2023/09/18 02:38:33;;;;;;;8.57;5.88;;;22.60;99.90;;;;;;4976642;28;20360;-78
2023/09/18 02:40:59;;;;;;;7.40;5.57;;;22.50;99.90;;;;;;4976779;28;20019;-70
2023/09/18 02:43:24;;;;;;;5.90;5.40;;;22.60;99.90;;;;;;4976300;28;20387;-71
2023/09/18 02:45:50;;;;;;;7.03;5.40;;;22.60;99.90;;;;;;4976758;28;20085;-70
2023/09/18 02:48:17;;;;;;;6.85;5.93;;;22.60;99.90;;;;;;4976567;28;20023;-71
2023/09/18 02:50:43;;;;;;;7.38;5.32;;;22.50;99.90;;;;;;4976566;28;20041;-73
2023/09/18 02:53:16;;;;;;;6.10;5.13;;;22.50;99.90;;;;;;4976642;28;20106;-70
2023/09/18 02:55:43;;;;;;;6.90;4.95;;;22.50;99.90;;;;;;4976629;28;20027;-75
2023/09/18 02:58:10;;;;;;;7.78;5.55;;;22.50;99.90;;;;;;4975993;28;20062;-78
2023/09/18 03:00:40;;;;;;;7.80;5.18;;;22.50;99.90;;;;;;4976501;28;20435;-78
2023/09/18 03:03:06;;;;;;;8.90;5.20;;;22.50;99.90;;;;;;4976140;28;20034;-81
2023/09/18 03:05:31;;;;;;;8.35;5.38;;;22.50;99.90;;;;;;4976381;28;20041;-79
2023/09/18 03:07:57;;;;;;;6.93;4.90;;;22.40;99.90;;;;;;4976192;28;20081;-75
2023/09/18 03:10:23;;;;;;;6.72;4.93;;;22.50;99.90;;;;;;4976202;28;20035;-77
2023/09/18 03:12:49;;;;;;;7.22;4.95;;;22.50;99.90;;;;;;4975985;28;20066;-70
2023/09/18 03:15:14;;;;;;;7.65;4.70;;;22.50;99.90;;;;;;4975975;28;20030;-77
2023/09/18 03:17:41;;;;;;;5.63;4.50;;;22.50;99.90;;;;;;4976140;28;20027;-73
2023/09/18 03:20:08;;;;;;;6.72;4.43;;;22.40;99.90;;;;;;4975707;28;20554;-70
2023/09/18 03:22:33;;;;;;;6.97;4.18;;;22.40;99.90;;;;;;4975138;28;20469;-73
2023/09/18 03:24:59;;;;;;;5.50;4.50;;;22.40;99.90;;;;;;4974232;28;20114;-74
2023/09/18 03:27:28;;;;;;;7.18;4.30;;;22.40;99.90;;;;;;4988439;28;20336;-72
2023/09/18 03:29:57;;;;;;;5.55;3.35;;;22.40;99.90;;;;;;4983206;28;20126;-74
2023/09/18 03:32:23;;;;;;;6.57;3.80;;;22.40;99.90;;;;;;4978066;28;20105;-73
2023/09/18 03:34:52;;;;;;;6.25;3.78;;;22.40;99.90;;;;;;4976339;28;20039;-76
2023/09/18 03:37:18;;;;;;;5.70;3.53;;;22.50;99.90;;;;;;4990318;28;20042;-75
2023/09/18 03:39:44;;;;;;;5.72;3.58;;;22.40;99.90;;;;;;4989629;28;20022;-70
2023/09/18 03:42:09;;;;;;;4.70;3.58;;;22.40;99.90;;;;;;4985215;28;20484;-70
2023/09/18 03:44:35;;;;;;;6.32;3.40;;;22.40;99.90;;;;;;4975518;28;20018;-71
2023/09/18 03:47:01;;;;;;;5.63;3.70;;;22.40;99.90;;;;;;4973804;28;20031;-80
2023/09/18 03:49:27;;;;;;;3.97;3.50;;;22.40;99.90;;;;;;4975429;28;20043;-81
2023/09/18 03:51:53;;;;;;;7.57;3.67;;;22.40;99.90;;;;;;4975392;28;20031;-70
2023/09/18 03:54:19;;;;;;;6.40;4.03;;;22.40;99.90;;;;;;4975334;28;20045;-70
2023/09/18 03:56:46;;;;;;;6.72;3.88;;;22.40;99.90;;;;;;4974231;28;20550;-74
2023/09/18 03:59:12;;;;;;;4.78;3.40;;;22.40;99.90;;;;;;4973812;28;20034;-71
2023/09/18 04:01:37;;;;;;;5.90;3.95;;;22.40;99.90;;;;;;4975238;28;20027;-81
2023/09/18 04:04:03;;;;;;;7.55;4.22;;;22.40;99.90;;;;;;4975088;28;20101;-76
2023/09/18 04:06:37;;;;;;;6.72;4.13;;;22.40;99.90;;;;;;4975099;28;20023;-70
2023/09/18 04:09:03;;;;;;;7.03;3.85;;;22.40;99.90;;;;;;4975070;28;20031;-70
2023/09/18 04:11:31;;;;;;;8.30;4.63;;;22.30;99.90;;;;;;4974610;28;20065;-77
2023/09/18 04:13:58;;;;;;;5.93;3.90;;;22.30;99.90;;;;;;4974937;28;20031;-71
2023/09/18 04:16:24;;;;;;;4.70;3.50;;;22.30;99.90;;;;;;4974921;28;20027;-74
2023/09/18 04:18:50;;;;;;;4.53;3.22;;;22.30;99.90;;;;;;4973388;28;20030;-70
2023/09/18 04:21:15;;;;;;;11.80;3.78;;;22.30;99.90;;;;;;4958939;28;20485;-70
2023/09/18 04:23:41;;;;;;;8.27;3.28;;;22.30;99.90;;;;;;4955048;29;20035;-82
2023/09/18 04:26:07;;;;;;;4.38;3.22;;;22.30;99.90;;;;;;4955261;29;20027;-75
2023/09/18 04:28:32;;;;;;;3.50;3.05;;;22.40;99.90;;;;;;4955231;29;20070;-74
2023/09/18 04:30:58;;;;;;;4.22;2.40;;;22.30;99.90;;;;;;4955285;29;20031;-70
2023/09/18 04:33:25;;;;;;;6.22;2.90;;;22.40;99.90;;;;;;4954507;29;20647;-70
2023/09/18 04:35:51;;;;;;;4.65;3.00;;;22.40;99.90;;;;;;4937656;29;20027;-72
2023/09/18 04:38:18;;;;;;;4.15;3.00;;;22.30;99.90;;;;;;4953510;28;20031;-71
2023/09/18 04:40:45;;;;;;;5.35;3.10;;;22.30;99.90;;;;;;4953955;29;20031;-81
2023/09/18 04:43:11;;;;;;;5.05;2.60;;;22.30;99.90;;;;;;4955401;28;20381;-81
2023/09/18 04:45:37;;;;;;;5.18;2.80;;;22.30;99.90;;;;;;4957244;28;20493;-72
2023/09/18 04:48:05;;;;;;;13.73;3.35;;;22.30;99.90;;;;;;4956829;28;20111;-72
2023/09/18 04:50:31;;;;;;;5.63;3.20;;;22.30;99.90;;;;;;4953373;29;20043;-71
2023/09/18 04:52:57;;;;;;;7.05;2.65;;;22.30;99.90;;;;;;4951622;28;20074;-69
2023/09/18 04:55:23;;;;;;;7.63;3.42;;;22.40;99.90;;;;;;4954848;29;20429;-75
2023/09/18 04:57:49;;;;;;;2.72;2.15;;;22.40;99.90;;;;;;4935399;29;20059;-69
2023/09/18 05:00:15;;;;;;;4.35;3.05;;;22.40;99.90;;;;;;4961616;28;20058;-69
2023/09/18 05:02:40;;;;;;;4.22;2.53;;;22.50;99.90;;;;;;4974446;28;20480;-81
2023/09/18 05:05:08;;;;;;;5.22;2.60;;;22.50;99.90;;;;;;4969111;28;20077;-78
2023/09/18 05:07:34;;;;;;;5.75;2.50;;;22.50;99.90;;;;;;4956956;28;20070;-72
2023/09/18 05:10:00;;;;;;;5.10;2.78;;;22.50;99.90;;;;;;4937021;29;20060;-69
2023/09/18 05:12:26;;;;;;;3.63;2.30;;;22.50;99.90;;;;;;4954198;29;20484;-69
2023/09/18 05:14:51;;;;;;;5.43;2.70;;;22.50;99.90;;;;;;4954982;29;20038;-68
2023/09/18 05:17:17;;;;;;;5.65;2.28;;;22.50;99.90;;;;;;4954783;29;20051;-70
2023/09/18 05:19:44;;;;;;;5.82;2.92;;;22.50;99.90;;;;;;4957024;28;20035;-73
2023/09/18 05:22:10;;;;;;;4.55;2.25;;;22.50;99.90;;;;;;4966026;28;20027;-68
2023/09/18 05:24:37;;;;;;;5.35;2.20;;;22.50;99.90;;;;;;4965889;28;20028;-68
2023/09/18 05:27:03;;;;;;;4.25;2.30;;;22.50;99.90;;;;;;4966437;28;20469;-69
2023/09/18 05:29:29;;;;;;;5.38;2.03;;;22.40;99.90;;;;;;4973874;28;20030;-77
2023/09/18 05:31:54;;;;;;;2.30;1.63;;;22.40;99.90;;;;;;4973819;28;20109;-69
2023/09/18 05:34:20;;;;;;;1.90;1.70;;;22.40;99.90;;;;;;4973292;28;20035;-69
2023/09/18 05:36:46;;;;;;;5.30;1.52;;;22.40;99.90;;;;;;4956565;28;20078;-80
2023/09/18 05:39:12;;;;;;;3.70;2.00;;;22.30;99.90;;;;;;4966550;28;20023;-70
2023/09/18 05:41:39;;;;;;;2.00;1.65;;;22.30;99.90;;;;;;4951976;29;20511;-77
2023/09/18 05:44:07;;;;;;;4.43;1.73;;;22.20;99.90;;;;;;4952790;29;20034;-68
2023/09/18 05:46:35;;;;;;;2.85;1.50;;;22.30;99.90;;;;;;4955552;28;20031;-71
2023/09/18 05:49:01;;;;;;;2.95;2.03;;;22.20;99.90;;;;;;4957473;29;20055;-69
2023/09/18 05:51:27;;;;;;;3.45;2.00;;;22.20;99.90;;;;;;4957665;29;20039;-70
2023/09/18 05:53:53;;;;;;;3.33;1.70;;;22.20;99.90;;;;;;4957969;29;20024;-70
2023/09/18 05:56:19;;;;;;;4.97;2.17;;;22.20;99.90;;;;;;4957894;29;20115;-69
2023/09/18 05:58:44;;;;;;;4.07;2.00;;;22.20;99.90;;;;;;4957814;29;20033;-71
2023/09/18 06:01:10;;;;;;;6.15;2.08;;;22.10;99.90;;;;;;4957513;29;20059;-68
2023/09/18 06:03:36;;;;;;;4.68;1.90;;;22.10;99.90;;;;;;4957849;28;20035;-68
2023/09/18 06:06:02;;;;;;;3.58;1.33;;;22.10;99.90;;;;;;4957964;28;20473;-70
2023/09/18 06:08:31;;;;;;;2.10;1.50;;;22.10;99.90;;;;;;4958070;28;20027;-70
2023/09/18 06:10:57;;;;;;;5.32;1.80;;;22.10;99.90;;;;;;4976978;28;20035;-69
2023/09/18 06:13:25;;;;;;;2.95;1.75;;;22.10;99.90;;;;;;4961097;28;20042;-69
2023/09/18 06:15:55;;;;;;;3.00;1.90;;;22.10;99.90;;;;;;4957367;29;20114;-74
2023/09/18 06:18:21;;;;;;;2.95;1.70;;;22.10;99.90;;;;;;4941210;29;20031;-70
2023/09/18 06:20:48;;;;;;;2.92;1.33;;;22.00;99.90;;;;;;4969466;28;20026;-69
2023/09/18 06:23:13;;;;;;;3.38;1.60;;;22.10;99.90;;;;;;4976609;28;20393;-75
2023/09/18 06:25:39;;;;;;;3.88;1.70;;;22.10;99.90;;;;;;4977200;28;20019;-70
2023/09/18 06:28:06;;;;;;;3.50;1.92;;;22.00;99.90;;;;;;4975660;28;20030;-74
2023/09/18 06:30:33;;;;;;;3.80;1.60;;;22.00;99.90;;;;;;4976923;28;20041;-73
2023/09/18 06:32:59;;;;;;;4.40;1.80;;;22.00;99.90;;;;;;4976851;28;20126;-76
2023/09/18 06:35:25;;;;;;;3.60;1.83;;;22.00;99.90;;;;;;4976589;28;20116;-70
2023/09/18 06:37:51;;;;;;;2.53;1.40;;;22.00;99.90;;;;;;4976519;28;20050;-69
2023/09/18 06:40:16;;;;;;;3.85;1.30;;;22.00;99.90;;;;;;4977026;28;20538;-71
2023/09/18 06:42:42;;;;;;;9.13;2.08;;;22.10;99.90;;;;;;4976769;28;20554;-69
2023/09/18 06:45:08;;;;;;;4.22;2.10;;;22.10;99.90;;;;;;4976834;28;20034;-71
2023/09/18 06:47:34;;;;;;;5.22;2.33;;;22.10;99.90;;;;;;4976639;28;20161;-70
2023/09/18 06:50:00;;;;;;;2.50;2.08;;;22.00;99.90;;;;;;4976086;28;20481;-69
2023/09/18 06:52:27;;;;;;;2.50;1.92;;;22.00;99.90;;;;;;4976667;28;20034;-69
2023/09/18 06:54:53;;;;;;;3.45;1.48;;;22.10;99.90;;;;;;4976397;28;20046;-70
2023/09/18 06:57:21;;;;;;;5.53;1.55;;;22.10;99.90;;;;;;4974926;28;20464;-76
2023/09/18 06:59:47;;;;;;;4.18;2.40;;;22.10;99.90;;;;;;4976436;28;20023;-70
2023/09/18 07:02:14;;;;;;;5.88;2.15;;;22.00;99.90;;;;;;4976514;28;20038;-71
2023/09/18 07:04:44;;;;;;;4.53;1.60;;;22.00;99.90;;;;;;4975805;28;20078;-75
2023/09/18 07:07:12;;;;;;;4.50;2.08;;;22.10;99.90;;;;;;4974780;28;20026;-69
2023/09/18 07:09:37;;;;;;;5.13;1.42;;;22.10;99.90;;;;;;4975862;28;20393;-74
2023/09/18 07:12:04;;;;;;;5.18;1.58;;;22.10;99.90;;;;;;4976141;28;20177;-74
2023/09/18 07:14:29;;;;;;;2.45;1.30;;;22.10;99.90;;;;;;4975984;28;20388;-69
2023/09/18 07:16:55;;;;;;;2.58;1.75;;;22.10;99.90;;;;;;4976150;28;20465;-72
2023/09/18 07:19:20;;;;;;;4.00;1.50;;;22.10;99.90;;;;;;4975599;28;20461;-69
2023/09/18 07:21:46;;;;;;;5.20;2.22;;;22.00;99.90;;;;;;4976113;28;20034;-70
2023/09/18 07:24:16;;;;;;;5.60;1.50;;;22.10;99.90;;;;;;4975997;28;20077;-74
2023/09/18 07:26:43;;;;;;;3.60;1.85;;;22.10;99.90;;;;;;4975931;28;20074;-77
2023/09/18 07:29:09;;;;;;;4.55;1.27;;;22.10;99.90;;;;;;4975586;28;20023;-70
2023/09/18 07:31:35;;;;;;;3.70;2.10;;;22.10;99.90;;;;;;4975749;28;20038;-73
2023/09/18 07:34:00;;;;;;;3.92;1.48;;;22.10;99.90;;;;;;4975243;28;20023;-70
2023/09/18 07:36:27;;;;;;;5.78;1.60;;;22.10;99.90;;;;;;4975958;28;20588;-70
2023/09/18 07:38:54;;;;;;;5.88;2.00;;;22.10;99.90;;;;;;4975440;28;20396;-70
2023/09/18 07:41:21;;;;;;;2.58;1.73;;;22.10;99.90;;;;;;4975602;28;20025;-69
2023/09/18 07:43:46;;;;;;;2.30;1.08;;;22.20;99.90;;;;;;4975625;28;20077;-70
2023/09/18 07:46:12;;;;;;;2.47;1.40;;;22.20;99.90;;;;;;4975553;28;20026;-70
2023/09/18 07:48:37;;;;;;;3.00;1.50;;;22.20;99.90;;;;;;4975275;28;20537;-70
2023/09/18 07:51:03;;;;;;;4.28;1.67;;;22.20;99.90;;;;;;4975440;28;20027;-69
2023/09/18 07:53:29;;;;;;;3.63;1.88;;;22.20;99.90;;;;;;4975624;28;20030;-70
2023/09/18 07:55:58;;;;;;;6.03;1.85;;;22.20;99.90;;;;;;4975383;28;20476;-68
2023/09/18 07:58:27;;;;;;;1.92;1.48;;;22.20;99.90;;;;;;4975311;28;20031;-77
2023/09/18 08:00:57;;;;;;;3.38;1.95;;;22.20;99.90;;;;;;4973752;28;20370;-70
2023/09/18 08:03:23;;;;;;;6.22;2.40;;;22.20;99.90;;;;;;4974965;28;20023;-73
2023/09/18 08:05:53;;;;;;;4.47;1.98;;;22.20;99.90;;;;;;4975336;28;20029;-72
2023/09/18 08:08:20;;;;;;;5.13;1.95;;;22.20;99.90;;;;;;4974949;28;20026;-70
2023/09/18 08:10:46;;;;;;;4.65;2.40;;;22.20;99.90;;;;;;4974463;28;20070;-69
2023/09/18 08:13:13;;;;;;;4.60;2.47;;;22.20;99.90;;;;;;4975189;28;20487;-76
2023/09/18 08:15:38;;;;;;;6.68;2.45;;;22.20;99.90;;;;;;4974867;28;20027;-69
2023/09/18 08:18:04;;;;;;;6.55;3.00;;;22.20;99.90;;;;;;4974592;28;20345;-75
2023/09/18 08:20:30;;;;;;;3.72;1.80;;;22.20;99.90;;;;;;4974685;28;20042;-70
2023/09/18 08:22:56;;;;;;;4.57;2.42;;;22.20;99.90;;;;;;4974990;28;20380;-71
2023/09/18 08:25:22;;;;;;;7.13;2.72;;;22.30;99.90;;;;;;4989755;28;20035;-70
2023/09/18 08:27:48;;;;;;;4.30;2.50;;;22.20;99.90;;;;;;4975091;28;20431;-77
2023/09/18 08:30:14;;;;;;;6.28;3.20;;;22.20;99.90;;;;;;4973222;28;20038;-72
2023/09/18 08:32:42;;;;;;;7.68;2.58;;;22.30;99.90;;;;;;4974520;28;20031;-69
2023/09/18 08:35:08;;;;;;;8.00;3.00;;;22.20;99.90;;;;;;4974454;28;20117;-78
2023/09/18 08:37:34;;;;;;;4.38;2.67;;;22.30;99.90;;;;;;4974723;28;20022;-78
2023/09/18 08:40:09;;;;;;;5.20;2.80;;;22.20;99.90;;;;;;4974624;28;20034;-69
2023/09/18 08:42:39;;;;;;;7.13;3.13;;;22.30;99.90;;;;;;4974719;28;20018;-70
2023/09/18 08:45:09;;;;;;;6.40;3.10;;;22.20;99.90;;;;;;4974585;28;20031;-77
2023/09/18 08:47:36;;;;;;;6.15;2.80;;;22.20;99.90;;;;;;4974324;28;20416;-70
2023/09/18 08:50:02;;;;;;;5.18;3.00;;;22.20;99.90;;;;;;4974409;28;20041;-69
2023/09/18 08:52:28;;;;;;;7.78;3.08;;;22.20;99.90;;;;;;4974449;28;20134;-69
2023/09/18 08:54:56;;;;;;;6.43;3.28;;;22.20;99.90;;;;;;4974519;28;20105;-71
2023/09/18 08:57:22;;;;;;;4.55;2.65;;;22.20;99.90;;;;;;4980664;28;20026;-76
2023/09/18 08:59:52;;;;;;;5.20;3.28;;;22.30;99.90;;;;;;4980038;28;20035;-68
2023/09/18 09:02:18;;;;;;;3.72;2.20;;;22.30;99.90;;;;;;4990294;28;20033;-68
2023/09/18 09:04:44;;;;;;;5.43;2.80;;;22.30;99.90;;;;;;4980120;28;20034;-69
2023/09/18 09:07:09;;;;;;;6.75;2.88;;;22.30;99.90;;;;;;4988485;28;20130;-67
2023/09/18 09:09:35;;;;;;;4.80;2.28;;;22.30;99.90;;;;;;4972752;28;20038;-70
2023/09/18 09:12:01;;;;;;;4.70;2.47;;;22.30;99.90;;;;;;4970731;28;20033;-69
2023/09/18 09:14:29;;;;;;;5.05;2.20;;;22.30;99.90;;;;;;4969409;28;20385;-68
2023/09/18 09:16:59;;;;;;;6.13;2.15;;;22.40;99.90;;;;;;4970019;28;20469;-67
2023/09/18 09:19:38;;;;;;;4.32;2.45;;;22.40;99.90;;;;;;4971778;28;20030;-68
2023/09/18 09:22:04;;;;;;;5.80;3.10;;;22.40;99.90;;;;;;4965246;28;20093;-74
2023/09/18 09:24:41;;;;;;;6.25;2.58;;;22.30;99.90;;;;;;4969263;28;20028;-79
2023/09/18 09:27:08;;;;;;;4.70;2.75;;;22.30;99.90;;;;;;4958243;28;20078;-70
2023/09/18 09:29:34;;;;;;;6.15;3.28;;;22.40;99.90;;;;;;4960622;28;20034;-67
2023/09/18 09:32:13;;;;;;;4.82;3.22;;;22.40;99.90;;;;;;4958604;28;20437;-67
2023/09/18 09:34:41;;;;;;;5.45;3.35;;;22.30;99.90;;;;;;4958284;28;20114;-72
2023/09/18 09:37:07;;;;;;;4.95;3.33;;;22.40;99.90;;;;;;4957463;29;20030;-69
2023/09/18 09:39:34;;;;;;;4.70;3.53;;;22.30;99.90;;;;;;4957652;29;20031;-75
2023/09/18 09:42:03;;;;;;;5.28;3.40;;;22.30;99.90;;;;;;4957228;29;20015;-76
2023/09/18 09:44:31;;;;;;;5.72;3.08;;;22.30;99.90;;;;;;4956725;29;20035;-68
2023/09/18 09:46:59;;;;;;;4.38;3.08;;;22.40;99.90;;;;;;4957888;29;20081;-68
2023/09/18 09:49:27;;;;;;;8.70;3.25;;;22.40;99.90;;;;;;4957547;29;20122;-67
2023/09/18 09:51:54;;;;;;;5.53;3.53;;;22.40;99.90;;;;;;4940384;29;20434;-72
2023/09/18 09:54:39;;;;;;;5.97;2.90;;;22.30;99.90;;;;;;4940023;29;20031;-68
2023/09/18 09:57:05;;;;;;;8.38;3.90;;;22.40;99.90;;;;;;4957977;28;20027;-72
2023/09/18 09:59:33;;;;;;;3.92;3.00;;;22.40;99.90;;;;;;4956420;28;20108;-74
2023/09/18 10:01:59;;;;;;;4.32;3.30;;;22.40;99.90;;;;;;4954054;29;20020;-68
2023/09/18 10:04:28;;;;;;;6.25;3.60;;;22.40;99.90;;;;;;4957893;28;20035;-70
2023/09/18 10:07:08;;;;;;;6.05;2.97;;;22.40;99.90;;;;;;4946179;28;20019;-69
2023/09/18 10:09:40;;;;;;;5.45;3.40;;;22.40;99.90;;;;;;4966479;28;20026;-69
2023/09/18 10:12:11;;;;;;;6.95;3.80;;;22.40;99.90;;;;;;4951935;28;20488;-79
2023/09/18 10:14:39;;;;;;;4.57;3.00;;;22.40;99.90;;;;;;4964804;28;20361;-68
2023/09/18 10:17:19;;;;;;;5.72;3.60;;;22.40;99.90;;;;;;4958680;28;20395;-69
2023/09/18 10:20:20;;;;;;;6.85;3.80;;;22.40;99.90;;;;;;4953134;28;20026;-67
2023/09/18 10:22:52;;;;;;;8.07;4.20;;;22.40;99.90;;;;;;4968485;28;20033;-73
2023/09/18 10:25:20;;;;;;;;;;;22.40;99.90;;;;;;4974075;28;20109;-74
2023/09/18 10:27:53;;;;;;;5.60;4.28;;;22.40;99.90;;;;;;4974005;28;20244;-70
2023/09/18 10:30:23;;;;;;;5.63;3.83;;;22.40;99.90;;;;;;4974021;28;20066;-71
2023/09/18 10:32:50;;;;;;;6.20;3.70;;;22.40;99.90;;;;;;4973888;28;20018;-71
2023/09/18 10:35:16;;;;;;;5.78;3.40;;;22.40;99.90;;;;;;4975866;28;20042;-68
2023/09/18 10:37:45;;;;;;;8.60;3.67;;;22.40;99.90;;;;;;4974933;28;20376;-69
2023/09/18 10:40:12;;;;;;;5.38;3.53;;;22.40;99.90;;;;;;4974778;28;20022;-70
2023/09/18 10:42:41;;;;;;;7.55;3.72;;;22.40;99.90;;;;;;4973623;28;20089;-70
2023/09/18 10:45:11;;;;;;;4.07;2.90;;;22.50;99.90;;;;;;4975211;28;20118;-70
2023/09/18 10:47:43;;;;;;;4.97;3.20;;;22.50;99.90;;;;;;4975222;28;20027;-71
2023/09/18 10:50:09;;;;;;;4.57;3.47;;;22.50;99.90;;;;;;4975565;28;20034;-77
2023/09/18 10:52:36;;;;;;;3.72;2.90;;;22.50;99.90;;;;;;4976692;28;20027;-68
2023/09/18 10:55:05;;;;;;;3.92;3.35;;;22.40;99.90;;;;;;4975767;28;20066;-68
2023/09/18 10:57:35;;;;;;;4.93;3.45;;;22.50;99.90;;;;;;4974731;28;20047;-68
2023/09/18 11:00:13;;;;;;;5.85;3.15;;;22.50;99.90;;;;;;4970072;28;20531;-72
2023/09/18 11:02:40;;;;;;;5.00;3.40;;;22.50;99.90;;;;;;4974293;28;20023;-67
2023/09/18 11:05:06;;;;;;;7.00;3.90;;;22.50;99.90;;;;;;4972858;28;20389;-67
2023/09/18 11:07:32;;;;;;;4.10;3.40;;;22.50;99.90;;;;;;4973454;28;20027;-69
2023/09/18 11:09:57;;;;;;;5.93;3.25;;;22.50;99.90;;;;;;4973592;28;20067;-67
2023/09/18 11:12:42;;;;;;;7.00;3.40;;;22.50;99.90;;;;;;4968976;28;20041;-76
2023/09/18 11:15:10;;;;;;;7.38;4.32;;;22.60;99.90;;;;;;4973921;28;20384;-71
2023/09/18 11:17:39;;;;;;;5.72;3.53;;;22.60;99.90;;;;;;4974092;28;20037;-67
2023/09/18 11:20:17;;;;;;;5.72;3.60;;;22.60;99.90;;;;;;4975038;28;20038;-67
2023/09/18 11:23:09;;;;;;;8.77;4.20;;;22.60;99.90;;;;;;4955612;29;20035;-72
2023/09/18 11:25:37;;;;;;;10.15;4.55;;;22.60;99.90;;;;;;4973944;28;20033;-70
2023/09/18 11:28:06;;;;;;;8.75;4.00;;;22.60;99.90;;;;;;4973381;28;20031;-70
2023/09/18 11:30:32;;;;;;;8.52;4.20;;;22.60;99.90;;;;;;4974329;28;20042;-79
2023/09/18 11:32:58;;;;;;;18.25;3.83;;;22.60;99.90;;;;;;4972564;28;20038;-67
2023/09/18 11:35:25;;;;;;;8.88;3.90;;;22.70;99.90;;;;;;4982078;28;20046;-77
2023/09/18 11:38:05;;;;;;;6.30;3.30;;;22.60;99.90;;;;;;4972982;28;20023;-71
2023/09/18 11:40:34;;;;;;;5.63;3.22;;;22.70;99.90;;;;;;4972485;28;20022;-69
2023/09/18 11:43:22;;;;;;;9.63;3.42;;;22.70;99.90;;;;;;4972114;28;20019;-73
2023/09/18 11:45:50;;;;;;;4.97;2.70;;;22.70;99.90;;;;;;4973553;28;20030;-78
2023/09/18 11:48:16;;;;;;;5.63;2.78;;;22.70;99.90;;;;;;4974201;28;20023;-70
2023/09/18 11:50:44;;;;;;;5.55;2.90;;;22.70;99.90;;;;;;4966857;28;20046;-74
2023/09/18 11:53:12;;;;;;;6.55;2.78;;;22.70;99.90;;;;;;4967823;28;20142;-67
2023/09/18 11:55:39;;;;;;;6.25;2.85;;;22.80;99.90;;;;;;4969231;28;20056;-68
2023/09/18 11:58:09;;;;;;;5.90;2.35;;;22.80;99.90;;;;;;4972329;28;20026;-68
2023/09/18 12:00:45;;;;;;;3.40;2.47;;;22.80;99.90;;;;;;4971849;28;20038;-71
2023/09/18 12:03:27;;;;;;;6.70;2.70;;;22.90;99.90;;;;;;4973275;28;20361;-66
2023/09/18 12:06:17;;;;;;;3.88;2.10;;;22.90;99.90;;;;;;5043198;28;20746;-70
2023/09/18 12:08:44;;;;;;;4.57;2.40;;;22.90;99.90;;;;;;5045592;28;20502;-68
2023/09/18 12:11:16;;;;;;;4.47;2.45;;;22.90;99.90;;;;;;5040980;28;20757;-73
2023/09/18 12:13:43;;;;;;;;;;;22.90;99.90;;;;;;5057320;28;20556;-69
2023/09/18 12:16:09;;;;;;;4.05;1.90;;;22.90;99.90;;;;;;5040592;28;20289;-69
2023/09/18 12:18:37;;;;;;;4.88;2.00;;;22.90;99.90;;;;;;5041051;28;20035;-69
2023/09/18 12:21:06;;;;;;;7.00;2.42;;;22.90;99.90;;;;;;5047667;28;20060;-73
2023/09/18 12:23:39;;;;;;;6.95;2.20;;;23.00;99.90;;;;;;5043601;28;20356;-72
2023/09/18 12:26:06;;;;;;;3.60;2.15;;;23.00;99.90;;;;;;5042964;28;20029;-68
2023/09/18 12:28:34;;;;;;;3.38;2.50;;;23.00;99.90;;;;;;5048218;28;20108;-69
2023/09/18 12:31:04;;;;;;;4.93;1.80;;;23.10;99.90;;;;;;5045573;28;20072;-68
2023/09/18 12:33:34;;;;;;;5.50;2.30;;;23.10;99.90;;;;;;5047974;28;20013;-70
2023/09/18 12:35:59;;;;;;;6.15;1.90;;;23.10;99.90;;;;;;5027905;28;20030;-68
2023/09/18 12:38:28;;;;;;;4.13;1.90;;;23.10;99.90;;;;;;5025177;28;20091;-68
2023/09/18 12:41:09;;;;;;;3.40;1.85;;;23.00;99.90;;;;;;5027362;28;20025;-68
2023/09/18 12:43:42;;;;;;;3.75;1.77;;;23.10;99.90;;;;;;5025078;28;20448;-68
2023/09/18 12:46:08;;;;;;;4.25;1.45;;;23.20;99.90;;;;;;5026768;28;20101;-68
2023/09/18 12:48:45;;;;;;;4.85;2.50;;;23.20;99.90;;;;;;5028719;28;20670;-68
2023/09/18 12:51:11;;;;;;;4.00;1.92;;;23.20;99.90;;;;;;5015410;28;20109;-68